Time;durP1;ratioP1;P1;durP2;ratioP2;P2;SDS_P1;SDS_P2;PMS_P1;PMS_P2;Temp;Humidity;BMP_temperature;BMP_pressure;BME280_temperature;BME280_humidity;BME280_pressure;Samples;Min_cycle;Max_cycle;Signal;HPM_P1;HPM_P2
2022/09/08 00:02:59;;;;;;;;;;;;;;;;;;10460843;28;20360;-62
2022/09/08 00:08:02;;;;;;;;;;;;;;;;;;10459859;28;19925;-62
2022/09/08 00:13:06;;;;;;;;;;;;;;;;;;10459460;28;19924;-61
2022/09/08 00:18:08;;;;;;;;;;;;;;;;;;10460156;28;19924;-61
2022/09/08 00:23:10;;;;;;;;;;;;;;;;;;10460851;28;19928;-61
2022/09/08 00:28:12;;;;;;;;;;;;;;;;;;10458308;28;19924;-61
2022/09/08 00:33:14;;;;;;;;;;;;;;;;;;10458811;28;20330;-60
2022/09/08 00:38:16;;;;;;;;;;;;;;;;;;10459965;28;19929;-60
2022/09/08 00:43:18;;;;;;;;;;;;;;;;;;10460012;28;19974;-61
2022/09/08 00:48:21;;;;;;;;;;;;;;;;;;10457224;28;19982;-61
2022/09/08 00:53:23;;;;;;;;;;;;;;;;;;10458497;28;19950;-61
2022/09/08 00:58:26;;;;;;;;;;;;;;;;;;10458482;28;19924;-63
2022/09/08 01:03:28;;;;;;;;;;;;;;;;;;10458545;28;20003;-63
2022/09/08 01:13:50;;;;;;;;;;;;;;;;;;10457827;28;19986;-63
2022/09/08 01:18:56;;;;;;;;;;;;;;;;;;10456402;28;19924;-62
2022/09/08 01:23:58;;;;;;;;;;;;;;;;;;10457489;28;19932;-63
2022/09/08 01:29:00;;;;;;;;;;;;;;;;;;10456790;28;20326;-63
2022/09/08 01:34:02;;;;;;;;;;;;;;;;;;10457825;28;19924;-63
2022/09/08 01:39:04;;;;;;;;;;;;;;;;;;10457166;28;19925;-61
2022/09/08 01:44:06;;;;;;;;;;;;;;;;;;10456035;28;19928;-61
2022/09/08 01:49:08;;;;;;;;;;;;;;;;;;10455556;28;20338;-62
2022/09/08 01:54:10;;;;;;;;;;;;;;;;;;10457528;28;19926;-62
2022/09/08 01:59:12;;;;;;;;;;;;;;;;;;10455921;28;20431;-62
2022/09/08 02:04:14;;;;;;;;;;;;;;;;;;10455677;28;19925;-63
2022/09/08 02:09:16;;;;;;;;;;;;;;;;;;10455478;28;19983;-63
2022/09/08 02:14:18;;;;;;;;;;;;;;;;;;10456784;28;19925;-63
2022/09/08 02:19:20;;;;;;;;;;;;;;;;;;10456719;28;19929;-63
2022/09/08 02:24:22;;;;;;;;;;;;;;;;;;10455885;28;20368;-63
2022/09/08 02:29:25;;;;;;;;;;;;;;;;;;10456522;28;19925;-63
2022/09/08 02:34:27;;;;;;;;;;;;;;;;;;10455071;28;19928;-63
2022/09/08 02:39:29;;;;;;;;;;;;;;;;;;10415452;28;19928;-63
2022/09/08 02:44:32;;;;;;;;;;;;;;;;;;10414759;28;19968;-63
2022/09/08 02:49:34;;;;;;;;;;;;;;;;;;10454892;28;20326;-63
2022/09/08 02:54:36;;;;;;;;;;;;;;;;;;10455414;28;19980;-63
2022/09/08 02:59:38;;;;;;;;;;;;;;;;;;10460144;28;19924;-62
2022/09/08 03:04:40;;;;;;;;;;;;;;;;;;10462334;28;20339;-63
2022/09/08 03:09:43;;;;;;;;;;;;;;;;;;10462592;28;19935;-63
2022/09/08 03:14:45;;;;;;;;;;;;;;;;;;10461961;28;20380;-62
2022/09/08 03:19:47;;;;;;;;;;;;;;;;;;10463331;28;19929;-63
2022/09/08 03:24:49;;;;;;;;;;;;;;;;;;10462354;28;19924;-63
2022/09/08 03:29:53;;;;;;;;;;;;;;;;;;10461418;28;19925;-61
2022/09/08 03:34:55;;;;;;;;;;;;;;;;;;10459433;28;19971;-61
2022/09/08 03:39:58;;;;;;;;;;;;;;;;;;10461004;28;19929;-61
2022/09/08 03:45:00;;;;;;;;;;;;;;;;;;10460880;28;20272;-61
2022/09/08 03:50:02;;;;;;;;;;;;;;;;;;10461142;28;19929;-61
2022/09/08 03:55:05;;;;;;;;;;;;;;;;;;10460480;28;19929;-61
2022/09/08 04:00:07;;;;;;;;;;;;;;;;;;10461011;28;19951;-61
2022/09/08 04:05:09;;;;;;;;;;;;;;;;;;10460713;28;19925;-61
2022/09/08 04:10:11;;;;;;;;;;;;;;;;;;10459808;28;19929;-61
2022/09/08 04:15:19;;;;;;;;;;;;;;;;;;10459787;28;20513;-61
2022/09/08 04:20:22;;;;;;;;;;;;;;;;;;10460302;28;19929;-61
2022/09/08 04:25:24;;;;;;;;;;;;;;;;;;10459329;28;20042;-61
2022/09/08 04:30:26;;;;;;;;;;;;;;;;;;10458831;28;20338;-59
2022/09/08 04:35:28;;;;;;;;;;;;;;;;;;10459422;28;19925;-59
2022/09/08 04:40:30;;;;;;;;;;;;;;;;;;10460177;28;19924;-59
2022/09/08 04:45:32;;;;;;;;;;;;;;;;;;10458580;28;20269;-59
2022/09/08 04:50:34;;;;;;;;;;;;;;;;;;10458385;28;19933;-59
2022/09/08 04:55:36;;;;;;;;;;;;;;;;;;10458129;28;19925;-59
2022/09/08 05:00:38;;;;;;;;;;;;;;;;;;10459102;28;19931;-58
2022/09/08 05:05:40;;;;;;;;;;;;;;;;;;10458327;28;19925;-57
2022/09/08 05:10:42;;;;;;;;;;;;;;;;;;10457358;28;19925;-56
2022/09/08 05:15:45;;;;;;;;;;;;;;;;;;10457389;28;20295;-56
2022/09/08 05:20:47;;;;;;;;;;;;;;;;;;10456493;28;19955;-57
2022/09/08 05:25:49;;;;;;;;;;;;;;;;;;10457308;28;19925;-57
2022/09/08 05:30:51;;;;;;;;;;;;;;;;;;10455906;28;19994;-57
2022/09/08 05:35:53;;;;;;;;;;;;;;;;;;10457126;28;19971;-57
2022/09/08 05:40:56;;;;;;;;;;;;;;;;;;10456156;28;20383;-57
2022/09/08 05:45:58;;;;;;;;;;;;;;;;;;10457073;28;19970;-57
2022/09/08 05:51:00;;;;;;;;;;;;;;;;;;10454618;28;20294;-58
2022/09/08 05:56:02;;;;;;;;;;;;;;;;;;10455884;28;19931;-58
2022/09/08 06:01:04;;;;;;;;;;;;;;;;;;10455549;28;20269;-58
2022/09/08 06:06:07;;;;;;;;;;;;;;;;;;10455844;28;20384;-58
2022/09/08 06:11:09;;;;;;;;;;;;;;;;;;10455516;28;19925;-58
2022/09/08 06:16:11;;;;;;;;;;;;;;;;;;10455582;28;19929;-58
2022/09/08 06:21:13;;;;;;;;;;;;;;;;;;10457129;28;20400;-58
2022/09/08 06:26:15;;;;;;;;;;;;;;;;;;10454803;28;20038;-58
2022/09/08 06:31:18;;;;;;;;;;;;;;;;;;10455255;28;20008;-58
2022/09/08 06:36:20;;;;;;;;;;;;;;;;;;10462956;28;19925;-58
2022/09/08 06:41:22;;;;;;;;;;;;;;;;;;10463753;28;19978;-58
2022/09/08 06:46:24;;;;;;;;;;;;;;;;;;10463617;28;19924;-58
2022/09/08 06:51:26;;;;;;;;;;;;;;;;;;10463022;28;20334;-58
2022/09/08 06:56:28;;;;;;;;;;;;;;;;;;10463514;28;19925;-58
2022/09/08 07:01:50;;;;;;;;;;;;;;;;;;10463206;28;19986;-58
2022/09/08 07:06:52;;;;;;;;;;;;;;;;;;10462940;28;19928;-58
2022/09/08 07:11:54;;;;;;;;;;;;;;;;;;10462257;28;20433;-58
2022/09/08 07:16:57;;;;;;;;;;;;;;;;;;10462223;28;19924;-59
2022/09/08 07:21:59;;;;;;;;;;;;;;;;;;10462034;28;19960;-58
2022/09/08 07:27:01;;;;;;;;;;;;;;;;;;10462251;28;19970;-59
2022/09/08 07:32:03;;;;;;;;;;;;;;;;;;10461882;28;19925;-58
2022/09/08 07:37:05;;;;;;;;;;;;;;;;;;10461742;28;19924;-59
2022/09/08 07:42:07;;;;;;;;;;;;;;;;;;10461217;28;19929;-59
2022/09/08 07:47:12;;;;;;;;;;;;;;;;;;10460386;28;19978;-59
2022/09/08 07:52:14;;;;;;;;;;;;;;;;;;10459930;28;19924;-58
2022/09/08 07:57:16;;;;;;;;;;;;;;;;;;10461122;28;20368;-59
2022/09/08 08:02:38;;;;;;;;;;;;;;;;;;10461056;28;19925;-58
2022/09/08 08:07:40;;;;;;;;;;;;;;;;;;10459827;28;20334;-58
2022/09/08 08:12:42;;;;;;;;;;;;;;;;;;10460570;28;19929;-59
2022/09/08 08:17:44;;;;;;;;;;;;;;;;;;10440110;22;20442;-58
2022/09/08 08:22:46;;;;;;;;;;;;;;;;;;10419792;28;20000;-58
2022/09/08 08:27:49;;;;;;;;;;;;;;;;;;10417960;28;20323;-57
2022/09/08 08:32:52;;;;;;;;;;;;;;;;;;10417569;28;19979;-58
2022/09/08 08:37:54;;;;;;;;;;;;;;;;;;10419144;28;19925;-58
2022/09/08 08:42:56;;;;;;;;;;;;;;;;;;10417228;28;19925;-58
2022/09/08 08:47:58;;;;;;;;;;;;;;;;;;10418788;28;19956;-58
2022/09/08 08:53:00;;;;;;;;;;;;;;;;;;10400320;28;19930;-58
2022/09/08 08:58:02;;;;;;;;;;;;;;;;;;10417607;28;20265;-58
2022/09/08 09:03:11;;;;;;;;;;;;;;;;;;10416666;28;20399;-58
2022/09/08 09:08:13;;;;;;;;;;;;;;;;;;10415412;28;19971;-58
2022/09/08 09:13:15;;;;;;;;;;;;;;;;;;10397760;28;19971;-58
2022/09/08 09:18:17;;;;;;;;;;;;;;;;;;10415141;28;20423;-58
2022/09/08 09:23:20;;;;;;;;;;;;;;;;;;10412690;28;19933;-58
2022/09/08 09:28:22;;;;;;;;;;;;;;;;;;10413904;28;19925;-58
2022/09/08 09:33:24;;;;;;;;;;;;;;;;;;10406069;28;20422;-59
2022/09/08 09:38:26;;;;;;;;;;;;;;;;;;10408617;28;19982;-59
2022/09/08 09:43:28;;;;;;;;;;;;;;;;;;10416017;28;19999;-59
2022/09/08 09:48:30;;;;;;;;;;;;;;;;;;10415035;28;20032;-59
2022/09/08 09:53:32;;;;;;;;;;;;;;;;;;10416399;28;19925;-59
2022/09/08 09:58:36;;;;;;;;;;;;;;;;;;10416312;28;19979;-59
2022/09/08 10:03:38;;;;;;;;;;;;;;;;;;10413556;28;20571;-59
2022/09/08 10:08:41;;;;;;;;;;;;;;;;;;10414392;28;20337;-59
2022/09/08 10:13:43;;;;;;;;;;;;;;;;;;10416034;28;19925;-59
2022/09/08 10:18:45;;;;;;;;;;;;;;;;;;10415076;28;19994;-59
2022/09/08 10:23:48;;;;;;;;;;;;;;;;;;10410775;28;20002;-59
2022/09/08 10:28:50;;;;;;;;;;;;;;;;;;10415411;28;19929;-59
2022/09/08 10:33:52;;;;;;;;;;;;;;;;;;10414211;28;19929;-59
2022/09/08 10:38:55;;;;;;;;;;;;;;;;;;10413083;28;19948;-60
2022/09/08 10:43:58;;;;;;;;;;;;;;;;;;10415257;28;19933;-59
2022/09/08 10:49:01;;;;;;;;;;;;;;;;;;10414700;28;19925;-59
2022/09/08 10:54:03;;;;;;;;;;;;;;;;;;10411150;28;19983;-60
2022/09/08 10:59:05;;;;;;;;;;;;;;;;;;10407950;28;19925;-59
2022/09/08 11:04:09;;;;;;;;;;;;;;;;;;10408059;28;20024;-59
2022/09/08 11:09:11;;;;;;;;;;;;;;;;;;10407060;28;19929;-60
2022/09/08 11:14:16;;;;;;;;;;;;;;;;;;10407324;28;19991;-59
2022/09/08 11:19:18;;;;;;;;;;;;;;;;;;10407486;28;20339;-59
2022/09/08 11:24:35;;;;;;;;;;;;;;;;;;10414886;28;20020;-60
2022/09/08 11:29:37;;;;;;;;;;;;;;;;;;10414275;28;20426;-59
2022/09/08 11:34:39;;;;;;;;;;;;;;;;;;10396780;28;19929;-59
2022/09/08 11:39:41;;;;;;;;;;;;;;;;;;10413558;28;20469;-59
2022/09/08 11:44:44;;;;;;;;;;;;;;;;;;10413646;28;20396;-60
2022/09/08 11:49:46;;;;;;;;;;;;;;;;;;10413498;28;19972;-59
2022/09/08 11:55:08;;;;;;;;;;;;;;;;;;10413082;28;20444;-59
2022/09/08 12:00:10;;;;;;;;;;;;;;;;;;10413727;28;19929;-60
2022/09/08 12:05:12;;;;;;;;;;;;;;;;;;10413399;28;19929;-60
2022/09/08 12:10:34;;;;;;;;;;;;;;;;;;10412453;28;20019;-59
2022/09/08 12:15:36;;;;;;;;;;;;;;;;;;10412378;28;20022;-59
2022/09/08 12:20:39;;;;;;;;;;;;;;;;;;10412399;28;20024;-60
2022/09/08 12:25:41;;;;;;;;;;;;;;;;;;10412069;28;20240;-59
2022/09/08 12:31:03;;;;;;;;;;;;;;;;;;10396578;28;19929;-60
2022/09/08 12:36:06;;;;;;;;;;;;;;;;;;10412310;28;19925;-60
2022/09/08 12:41:08;;;;;;;;;;;;;;;;;;10416611;28;19971;-59
2022/09/08 12:46:11;;;;;;;;;;;;;;;;;;10418840;28;19925;-60
2022/09/08 12:51:18;;;;;;;;;;;;;;;;;;10417919;28;19936;-59
2022/09/08 12:56:21;;;;;;;;;;;;;;;;;;10418347;28;19925;-59
2022/09/08 13:01:23;;;;;;;;;;;;;;;;;;10418543;28;19925;-60
2022/09/08 13:06:25;;;;;;;;;;;;;;;;;;10417376;28;20011;-59
2022/09/08 13:11:27;;;;;;;;;;;;;;;;;;10417810;28;19929;-59
2022/09/08 13:16:30;;;;;;;;;;;;;;;;;;10416818;28;20396;-59
2022/09/08 13:21:32;;;;;;;;;;;;;;;;;;10417430;28;19972;-59
2022/09/08 13:26:34;;;;;;;;;;;;;;;;;;10416565;28;20447;-59
2022/09/08 13:31:36;;;;;;;;;;;;;;;;;;10417100;28;19972;-59
2022/09/08 13:36:38;;;;;;;;;;;;;;;;;;10416321;28;19974;-59
2022/09/08 13:41:40;;;;;;;;;;;;;;;;;;10416199;28;19975;-60
2022/09/08 13:46:42;;;;;;;;;;;;;;;;;;10413975;28;19925;-59
2022/09/08 13:51:45;;;;;;;;;;;;;;;;;;10415792;28;20291;-59
2022/09/08 13:56:47;;;;;;;;;;;;;;;;;;10416407;28;19925;-59
2022/09/08 14:01:49;;;;;;;;;;;;;;;;;;10413228;28;21366;-59
2022/09/08 14:06:51;;;;;;;;;;;;;;;;;;10413671;28;19926;-59
2022/09/08 14:11:53;;;;;;;;;;;;;;;;;;10413566;28;19929;-59
2022/09/08 14:16:55;;;;;;;;;;;;;;;;;;10414041;28;20372;-59
2022/09/08 14:21:58;;;;;;;;;;;;;;;;;;10414282;28;19984;-59
2022/09/08 14:27:00;;;;;;;;;;;;;;;;;;10415759;28;19925;-59
2022/09/08 14:32:02;;;;;;;;;;;;;;;;;;10412849;28;20269;-59
2022/09/08 14:37:04;;;;;;;;;;;;;;;;;;10412240;28;19951;-59
2022/09/08 14:42:06;;;;;;;;;;;;;;;;;;10413895;28;19926;-59
2022/09/08 14:47:08;;;;;;;;;;;;;;;;;;10412228;28;19925;-59
2022/09/08 14:52:10;;;;;;;;;;;;;;;;;;10412893;28;19925;-59
2022/09/08 14:57:12;;;;;;;;;;;;;;;;;;10418420;28;19951;-59
2022/09/08 15:02:14;;;;;;;;;;;;;;;;;;10403984;28;20376;-59
2022/09/08 15:07:18;;;;;;;;;;;;;;;;;;10419881;28;19925;-59
2022/09/08 15:12:20;;;;;;;;;;;;;;;;;;10422401;28;19932;-59
2022/09/08 15:17:22;;;;;;;;;;;;;;;;;;10421702;28;19925;-60
2022/09/08 15:22:24;;;;;;;;;;;;;;;;;;10421292;28;19932;-59
2022/09/08 15:27:27;;;;;;;;;;;;;;;;;;10419383;28;19925;-59
2022/09/08 15:32:29;;;;;;;;;;;;;;;;;;10421708;28;19929;-59
2022/09/08 15:37:31;;;;;;;;;;;;;;;;;;10420436;28;19925;-59
2022/09/08 15:42:33;;;;;;;;;;;;;;;;;;10402026;28;19925;-59
2022/09/08 15:47:35;;;;;;;;;;;;;;;;;;10450406;28;19925;-59
2022/09/08 15:52:37;;;;;;;;;;;;;;;;;;10423874;28;19979;-59
2022/09/08 15:57:39;;;;;;;;;;;;;;;;;;10420408;28;19929;-59
2022/09/08 16:02:41;;;;;;;;;;;;;;;;;;10420661;28;19925;-60
2022/09/08 16:07:43;;;;;;;;;;;;;;;;;;10419689;28;19925;-59
2022/09/08 16:12:45;;;;;;;;;;;;;;;;;;10417859;28;19952;-60
2022/09/08 16:17:47;;;;;;;;;;;;;;;;;;10404147;28;20355;-59
2022/09/08 16:22:50;;;;;;;;;;;;;;;;;;10414070;28;19932;-60
2022/09/08 16:27:53;;;;;;;;;;;;;;;;;;10418307;28;20269;-60
2022/09/08 16:32:55;;;;;;;;;;;;;;;;;;10418765;28;20380;-59
2022/09/08 16:37:57;;;;;;;;;;;;;;;;;;10411998;28;20312;-59
2022/09/08 16:42:59;;;;;;;;;;;;;;;;;;10414811;28;20022;-60
2022/09/08 16:48:01;;;;;;;;;;;;;;;;;;10425364;28;19986;-59
2022/09/08 16:53:03;;;;;;;;;;;;;;;;;;10459813;28;19978;-59
2022/09/08 16:58:06;;;;;;;;;;;;;;;;;;10459644;28;19924;-59
2022/09/08 17:03:08;;;;;;;;;;;;;;;;;;10457859;28;20376;-60
2022/09/08 17:08:10;;;;;;;;;;;;;;;;;;10417436;28;19925;-59
2022/09/08 17:13:13;;;;;;;;;;;;;;;;;;10417843;28;19929;-59
2022/09/08 17:18:15;;;;;;;;;;;;;;;;;;10417226;28;19925;-60
2022/09/08 17:23:17;;;;;;;;;;;;;;;;;;10412514;28;19925;-59
2022/09/08 17:28:19;;;;;;;;;;;;;;;;;;10410563;28;19933;-59
2022/09/08 17:33:21;;;;;;;;;;;;;;;;;;10410574;28;20319;-59
2022/09/08 17:38:23;;;;;;;;;;;;;;;;;;10404219;28;19933;-59
2022/09/08 17:43:26;;;;;;;;;;;;;;;;;;10397185;28;19971;-60
2022/09/08 17:48:28;;;;;;;;;;;;;;;;;;10408520;28;19925;-59
2022/09/08 17:53:32;;;;;;;;;;;;;;;;;;10412093;28;21454;-60
2022/09/08 17:58:34;;;;;;;;;;;;;;;;;;10412685;28;19925;-59
2022/09/08 18:03:36;;;;;;;;;;;;;;;;;;10391087;28;19926;-60
2022/09/08 18:08:38;;;;;;;;;;;;;;;;;;10414324;28;19925;-60
2022/09/08 18:13:40;;;;;;;;;;;;;;;;;;10411614;28;19983;-60
2022/09/08 18:18:43;;;;;;;;;;;;;;;;;;10411189;28;19940;-59
2022/09/08 18:23:47;;;;;;;;;;;;;;;;;;10414416;28;19932;-59
2022/09/08 18:28:49;;;;;;;;;;;;;;;;;;10417249;28;19929;-59
2022/09/08 18:33:51;;;;;;;;;;;;;;;;;;10420847;28;19980;-59
2022/09/08 18:38:54;;;;;;;;;;;;;;;;;;10423928;28;19952;-59
2022/09/08 18:43:57;;;;;;;;;;;;;;;;;;10423677;28;19971;-60
2022/09/08 18:48:59;;;;;;;;;;;;;;;;;;10429257;28;19929;-59
2022/09/08 18:54:01;;;;;;;;;;;;;;;;;;10421360;28;20442;-59
2022/09/08 18:59:04;;;;;;;;;;;;;;;;;;10421318;28;19925;-59
2022/09/08 19:04:06;;;;;;;;;;;;;;;;;;10420125;28;19952;-60
2022/09/08 19:09:09;;;;;;;;;;;;;;;;;;10422555;28;19925;-60
2022/09/08 19:14:11;;;;;;;;;;;;;;;;;;10419104;28;20327;-60
2022/09/08 19:19:13;;;;;;;;;;;;;;;;;;10419292;28;19979;-59
2022/09/08 19:24:16;;;;;;;;;;;;;;;;;;10418374;28;19972;-59
2022/09/08 19:29:18;;;;;;;;;;;;;;;;;;10421941;28;19929;-59
2022/09/08 19:34:21;;;;;;;;;;;;;;;;;;10420669;28;19933;-59
2022/09/08 19:39:23;;;;;;;;;;;;;;;;;;10420602;28;20261;-59
2022/09/08 19:44:25;;;;;;;;;;;;;;;;;;10416934;28;19971;-59
2022/09/08 19:49:27;;;;;;;;;;;;;;;;;;10420639;28;20380;-59
2022/09/08 19:54:29;;;;;;;;;;;;;;;;;;10401669;28;19984;-59
2022/09/08 19:59:34;;;;;;;;;;;;;;;;;;10420841;28;19925;-59
2022/09/08 20:04:36;;;;;;;;;;;;;;;;;;10418958;28;19952;-59
2022/09/08 20:09:39;;;;;;;;;;;;;;;;;;10419784;28;20388;-59
2022/09/08 20:14:41;;;;;;;;;;;;;;;;;;10418768;28;19929;-59
2022/09/08 20:19:45;;;;;;;;;;;;;;;;;;10400798;28;20368;-60
2022/09/08 20:24:50;;;;;;;;;;;;;;;;;;10417806;28;19929;-59
2022/09/08 20:29:52;;;;;;;;;;;;;;;;;;10427211;22;19925;-61
2022/09/08 20:34:57;;;;;;;;;;;;;;;;;;10419409;28;19971;-61
2022/09/08 20:39:59;;;;;;;;;;;;;;;;;;10418234;28;19980;-62
2022/09/08 20:45:02;;;;;;;;;;;;;;;;;;10412606;28;20019;-61
2022/09/08 20:50:04;;;;;;;;;;;;;;;;;;10415293;28;20368;-61
2022/09/08 20:55:06;;;;;;;;;;;;;;;;;;10418170;28;19971;-61
2022/09/08 21:00:08;;;;;;;;;;;;;;;;;;10417642;28;19979;-61
2022/09/08 21:05:10;;;;;;;;;;;;;;;;;;10417287;28;19925;-61
2022/09/08 21:10:12;;;;;;;;;;;;;;;;;;10400495;28;19933;-61
2022/09/08 21:15:14;;;;;;;;;;;;;;;;;;10416858;28;19925;-61
2022/09/08 21:20:16;;;;;;;;;;;;;;;;;;10416252;28;19929;-62
2022/09/08 21:25:19;;;;;;;;;;;;;;;;;;10416664;28;19975;-61
2022/09/08 21:30:22;;;;;;;;;;;;;;;;;;10417155;28;19944;-61
2022/09/08 21:35:26;;;;;;;;;;;;;;;;;;10417117;28;19932;-61
2022/09/08 21:40:28;;;;;;;;;;;;;;;;;;10416361;28;19925;-62
2022/09/08 21:45:30;;;;;;;;;;;;;;;;;;10415215;28;19971;-61
2022/09/08 21:50:32;;;;;;;;;;;;;;;;;;10416049;28;19929;-61
2022/09/08 21:55:34;;;;;;;;;;;;;;;;;;10416494;28;19929;-61
2022/09/08 22:00:36;;;;;;;;;;;;;;;;;;10415515;28;19952;-60
2022/09/08 22:05:39;;;;;;;;;;;;;;;;;;10414583;28;19925;-60
2022/09/08 22:10:41;;;;;;;;;;;;;;;;;;10415256;28;19929;-61
2022/09/08 22:15:43;;;;;;;;;;;;;;;;;;10415331;28;20334;-61
2022/09/08 22:20:45;;;;;;;;;;;;;;;;;;10415359;28;20376;-62
2022/09/08 22:25:48;;;;;;;;;;;;;;;;;;10413524;28;19973;-62
2022/09/08 22:30:50;;;;;;;;;;;;;;;;;;10414929;28;20331;-61
2022/09/08 22:35:52;;;;;;;;;;;;;;;;;;10415670;28;19937;-61
2022/09/08 22:40:54;;;;;;;;;;;;;;;;;;10414737;28;19925;-61
2022/09/08 22:45:56;;;;;;;;;;;;;;;;;;10413469;28;19925;-62
2022/09/08 22:51:00;;;;;;;;;;;;;;;;;;10415463;28;20021;-62
2022/09/08 22:56:02;;;;;;;;;;;;;;;;;;10415345;28;19935;-63
2022/09/08 23:01:04;;;;;;;;;;;;;;;;;;10414595;28;19933;-62
2022/09/08 23:06:06;;;;;;;;;;;;;;;;;;10412864;28;19948;-62
2022/09/08 23:11:08;;;;;;;;;;;;;;;;;;10414557;28;20360;-63
2022/09/08 23:16:10;;;;;;;;;;;;;;;;;;10418258;28;19979;-62
2022/09/08 23:21:13;;;;;;;;;;;;;;;;;;10420802;28;19925;-62
2022/09/08 23:26:15;;;;;;;;;;;;;;;;;;10420945;28;20003;-62
2022/09/08 23:31:20;;;;;;;;;;;;;;;;;;10421097;28;19979;-62
2022/09/08 23:36:23;;;;;;;;;;;;;;;;;;10420256;28;19929;-62
2022/09/08 23:41:26;;;;;;;;;;;;;;;;;;10421009;28;20399;-62
2022/09/08 23:46:28;;;;;;;;;;;;;;;;;;10420652;28;20007;-62
2022/09/08 23:51:30;;;;;;;;;;;;;;;;;;10421282;28;20020;-62
2022/09/08 23:56:33;;;;;;;;;;;;;;;;;;10419402;28;19929;-62
